Time;durP1;ratioP1;P1;durP2;ratioP2;P2;SDS_P1;SDS_P2;PMS_P1;PMS_P2;Temp;Humidity;BMP_temperature;BMP_pressure;BME280_temperature;BME280_humidity;BME280_pressure;Samples;Min_cycle;Max_cycle;Signal;HPM_P1;HPM_P2
2021/07/31 00:02:35;;;;;;;4.43;2.20;;;27.70;26.70;;;;;;21306574;27;80570;-75
2021/07/31 00:12:38;;;;;;;2.90;1.80;;;27.60;27.10;;;;;;21325000;27;81101;-72
2021/07/31 00:22:39;;;;;;;2.92;1.77;;;27.40;27.40;;;;;;21323614;27;81401;-69
2021/07/31 00:32:41;;;;;;;5.40;1.70;;;27.20;27.70;;;;;;21304036;27;81992;-71
2021/07/31 00:42:44;;;;;;;4.45;1.30;;;27.10;28.10;;;;;;21322533;27;80998;-73
2021/07/31 00:52:47;;;;;;;2.97;1.75;;;27.00;27.90;;;;;;21302957;27;81007;-71
2021/07/31 01:02:49;;;;;;;3.58;1.42;;;26.80;28.00;;;;;;21320777;27;81985;-70
2021/07/31 01:12:53;;;;;;;2.35;1.27;;;26.70;27.90;;;;;;21301725;27;81809;-71
2021/07/31 01:22:55;;;;;;;4.40;1.30;;;26.50;28.10;;;;;;21319898;27;81132;-69
2021/07/31 01:32:57;;;;;;;3.20;1.40;;;26.30;28.60;;;;;;21319081;27;81203;-70
2021/07/31 01:43:00;;;;;;;2.67;1.25;;;26.00;29.30;;;;;;21317331;27;80037;-68
2021/07/31 01:53:04;;;;;;;5.63;1.58;;;25.90;29.80;;;;;;21298558;27;81845;-68
2021/07/31 02:03:07;;;;;;;5.28;1.00;;;25.70;30.10;;;;;;21298832;27;81956;-71
2021/07/31 02:13:11;;;;;;;2.90;1.17;;;25.50;30.60;;;;;;21297489;27;80711;-69
2021/07/31 02:23:14;;;;;;;2.65;1.45;;;25.40;31.20;;;;;;21315429;27;80657;-70
2021/07/31 02:33:16;;;;;;;3.13;1.10;;;25.20;32.60;;;;;;21315805;27;80345;-69
2021/07/31 02:43:18;;;;;;;3.42;1.40;;;25.10;34.00;;;;;;21297328;27;79830;-76
2021/07/31 02:53:21;;;;;;;2.05;1.00;;;25.00;35.00;;;;;;21313963;27;80837;-76
2021/07/31 03:03:24;;;;;;;2.17;0.98;;;24.90;36.40;;;;;;21295171;27;81911;-75
2021/07/31 03:13:28;;;;;;;2.70;1.23;;;24.70;37.10;;;;;;21294228;27;83214;-69
2021/07/31 03:23:30;;;;;;;1.90;1.00;;;24.50;37.50;;;;;;21312140;27;80699;-70
2021/07/31 03:33:32;;;;;;;3.05;1.33;;;24.40;36.30;;;;;;21310977;27;81033;-71
2021/07/31 03:43:36;;;;;;;5.03;1.40;;;24.20;36.00;;;;;;21292927;27;80497;-77
2021/07/31 03:53:39;;;;;;;4.57;1.83;;;24.10;36.20;;;;;;21292017;27;81709;-73
2021/07/31 04:03:42;;;;;;;2.33;1.40;;;24.10;36.40;;;;;;21299495;27;79963;-71
2021/07/31 04:13:44;;;;;;;10.75;1.85;;;24.00;36.90;;;;;;21306264;27;81770;-70
2021/07/31 04:23:47;;;;;;;2.17;1.20;;;23.80;37.50;;;;;;21305042;27;80824;-74
2021/07/31 04:33:53;;;;;;;4.03;1.17;;;23.80;38.10;;;;;;21303539;27;80981;-70
2021/07/31 04:43:57;;;;;;;2.97;1.10;;;23.50;39.40;;;;;;21303530;27;80696;-69
2021/07/31 04:53:59;;;;;;;3.55;1.38;;;23.30;40.70;;;;;;21323357;27;81102;-70
2021/07/31 05:04:01;;;;;;;3.40;1.05;;;23.10;42.00;;;;;;21301865;27;80530;-72
2021/07/31 05:14:04;;;;;;;5.05;1.35;;;22.80;43.00;;;;;;21320059;27;81235;-71
2021/07/31 05:24:06;;;;;;;5.13;1.98;;;22.60;43.70;;;;;;21302317;27;81153;-72
2021/07/31 05:34:08;;;;;;;3.70;1.15;;;22.60;44.00;;;;;;21292039;27;80919;-73
2021/07/31 05:44:11;;;;;;;2.92;1.23;;;22.60;44.30;;;;;;21253832;27;81768;-74
2021/07/31 05:54:14;;;;;;;2.42;1.05;;;22.40;44.90;;;;;;21246480;27;80501;-73
2021/07/31 06:04:18;;;;;;;3.42;1.48;;;22.40;45.30;;;;;;21238419;27;81139;-77
2021/07/31 06:14:23;;;;;;;3.33;1.23;;;22.50;45.30;;;;;;21261923;27;82188;-77
2021/07/31 06:24:26;;;;;;;3.25;0.95;;;22.50;45.70;;;;;;21229117;27;81422;-71
2021/07/31 06:34:29;;;;;;;2.38;1.27;;;22.70;45.40;;;;;;21253919;27;81924;-70
2021/07/31 06:44:35;;;;;;;2.63;1.25;;;22.70;45.70;;;;;;21277906;27;80786;-73
2021/07/31 06:54:39;;;;;;;2.70;1.13;;;22.70;45.70;;;;;;21230365;27;80766;-71
2021/07/31 07:04:43;;;;;;;3.92;1.35;;;22.70;45.80;;;;;;21243015;27;82398;-70
2021/07/31 07:14:47;;;;;;;6.45;1.70;;;23.00;45.40;;;;;;21257945;27;80820;-69
2021/07/31 07:24:50;;;;;;;5.32;1.23;;;23.20;45.10;;;;;;21249748;27;81466;-69
2021/07/31 07:34:54;;;;;;;2.08;1.00;;;23.30;45.10;;;;;;21237884;27;81474;-72
2021/07/31 07:44:59;;;;;;;3.90;2.13;;;23.30;45.20;;;;;;21231907;27;81357;-69
2021/07/31 07:55:02;;;;;;;2.67;1.40;;;23.60;44.90;;;;;;21254463;27;82407;-69
2021/07/31 08:05:06;;;;;;;5.03;1.25;;;23.90;44.30;;;;;;21245536;27;81661;-68
2021/07/31 08:15:10;;;;;;;2.45;1.33;;;23.90;44.40;;;;;;21255479;27;81242;-71
2021/07/31 08:25:12;;;;;;;2.17;1.08;;;23.80;44.60;;;;;;21246666;27;82825;-70
2021/07/31 08:35:19;;;;;;;4.35;1.20;;;24.10;44.00;;;;;;21289699;27;80632;-74
2021/07/31 08:45:22;;;;;;;4.47;1.55;;;24.40;43.70;;;;;;21262535;27;81092;-76
2021/07/31 08:55:24;;;;;;;3.03;1.23;;;24.70;43.20;;;;;;21230016;27;81607;-69
2021/07/31 09:05:35;;;;;;;2.70;1.40;;;25.00;42.60;;;;;;21267681;27;84064;-69
2021/07/31 09:15:45;;;;;;;3.87;1.70;;;25.10;42.70;;;;;;21273302;27;81583;-72
2021/07/31 09:26:01;;;;;;;5.65;1.83;;;25.30;42.00;;;;;;21275264;27;80930;-69
2021/07/31 09:36:04;;;;;;;2.97;1.52;;;25.40;42.20;;;;;;21226052;27;80592;-70
2021/07/31 09:46:26;;;;;;;3.92;1.50;;;25.50;41.30;;;;;;21229772;27;81450;-71
2021/07/31 09:56:31;;;;;;;3.95;1.60;;;25.90;40.80;;;;;;21272328;27;80988;-69
2021/07/31 10:06:34;;;;;;;4.22;1.60;;;26.40;39.90;;;;;;21247382;27;80761;-69
2021/07/31 10:16:38;;;;;;;3.65;1.88;;;27.00;39.10;;;;;;21205529;27;82104;-69
2021/07/31 10:27:15;;;;;;;3.80;2.00;;;27.90;37.60;;;;;;21231591;27;81370;-72
2021/07/31 10:37:37;;;;;;;4.00;1.88;;;28.80;36.10;;;;;;21254921;27;80873;-70
2021/07/31 10:47:40;;;;;;;4.72;1.67;;;29.00;35.10;;;;;;21239085;27;81336;-70
2021/07/31 10:57:54;;;;;;;2.85;1.88;;;31.00;32.70;;;;;;21233461;27;82162;-70
2021/07/31 11:08:00;;;;;;;2.92;2.15;;;32.40;30.70;;;;;;21197459;27;81283;-71
2021/07/31 11:18:03;;;;;;;4.45;1.98;;;33.90;28.40;;;;;;21255103;27;82371;-71
2021/07/31 11:28:09;;;;;;;4.32;2.10;;;34.00;28.00;;;;;;21263158;27;81095;-73
2021/07/31 11:38:38;;;;;;;2.65;2.20;;;30.20;33.20;;;;;;21271538;27;81750;-71
2021/07/31 11:48:46;;;;;;;3.70;2.00;;;29.70;33.50;;;;;;21257067;27;81899;-72
2021/07/31 11:58:59;;;;;;;2.28;1.70;;;32.40;29.50;;;;;;21233479;27;81981;-73
2021/07/31 12:09:27;;;;;;;5.30;1.67;;;34.30;27.60;;;;;;21241316;27;81553;-69
2021/07/31 12:20:06;;;;;;;4.05;1.52;;;34.10;27.20;;;;;;21299378;27;81842;-69
2021/07/31 12:30:38;;;;;;;2.67;1.67;;;30.40;31.70;;;;;;21122798;27;82022;-72
2021/07/31 12:40:40;;;;;;;3.20;2.13;;;33.00;29.40;;;;;;21261222;27;81140;-73
2021/07/31 12:50:43;;;;;;;5.53;2.15;;;37.50;23.80;;;;;;21217621;27;81896;-81
2021/07/31 13:00:47;;;;;;;9.07;2.85;;;32.20;29.30;;;;;;21234647;27;80619;-74
2021/07/31 13:10:49;;;;;;;6.07;2.45;;;32.50;31.10;;;;;;21234796;27;80744;-69
2021/07/31 13:20:51;;;;;;;4.30;2.03;;;42.10;22.50;;;;;;21215854;27;80621;-68
2021/07/31 13:30:54;;;;;;;3.40;2.45;;;45.70;18.40;;;;;;21233543;27;84398;-68
2021/07/31 13:40:56;;;;;;;5.22;2.80;;;49.10;15.80;;;;;;21230734;27;80966;-69
2021/07/31 13:50:59;;;;;;;3.28;2.95;;;49.10;15.20;;;;;;21211744;27;80698;-74
2021/07/31 14:01:01;;;;;;;3.92;3.53;;;49.80;14.50;;;;;;21230306;27;80996;-67
2021/07/31 14:11:03;;;;;;;6.15;4.82;;;49.70;14.40;;;;;;21211569;27;80741;-74
2021/07/31 14:21:09;;;;;;;6.95;6.25;;;50.40;14.00;;;;;;21230182;27;80013;-67
2021/07/31 14:31:10;;;;;;;13.60;8.37;;;49.50;14.10;;;;;;21230137;27;82177;-69
2021/07/31 14:41:12;;;;;;;8.55;7.65;;;45.80;14.90;;;;;;21210404;27;81105;-72
2021/07/31 14:51:18;;;;;;;9.77;7.22;;;47.80;14.10;;;;;;21227479;27;80797;-75
2021/07/31 15:01:37;;;;;;;8.57;7.30;;;46.80;14.70;;;;;;21360101;27;1535368;-71
2021/07/31 15:11:41;;;;;;;8.77;6.50;;;44.70;15.50;;;;;;21302228;27;80092;-74
2021/07/31 15:21:43;;;;;;;7.43;5.53;;;38.10;19.90;;;;;;21285009;27;82995;-70
2021/07/31 15:31:45;;;;;;;9.15;5.53;;;35.40;22.50;;;;;;21283185;27;80804;-71
2021/07/31 15:41:47;;;;;;;7.82;4.50;;;34.30;24.60;;;;;;21279537;27;82218;-69
2021/07/31 15:51:48;;;;;;;6.78;4.35;;;34.60;23.80;;;;;;21271999;27;81005;-67
2021/07/31 16:01:50;;;;;;;4.82;3.58;;;33.90;24.30;;;;;;21273324;27;80524;-68
2021/07/31 16:11:52;;;;;;;6.10;3.67;;;33.20;24.70;;;;;;21225968;27;81295;-71
2021/07/31 16:21:54;;;;;;;5.20;3.47;;;33.60;24.60;;;;;;21218478;27;80258;-68
2021/07/31 16:31:58;;;;;;;8.23;3.60;;;35.90;22.50;;;;;;21237688;27;80719;-72
2021/07/31 16:42:00;;;;;;;6.40;2.97;;;35.10;22.90;;;;;;21238743;27;80936;-65
2021/07/31 16:52:02;;;;;;;5.43;2.40;;;34.00;23.90;;;;;;21220649;27;83463;-68
2021/07/31 17:02:04;;;;;;;4.18;1.70;;;31.90;26.00;;;;;;21216336;27;80932;-67
2021/07/31 17:12:06;;;;;;;2.97;2.03;;;31.80;25.70;;;;;;21234070;27;81357;-65
2021/07/31 17:22:08;;;;;;;7.53;1.83;;;31.30;26.20;;;;;;21213550;27;80724;-72
2021/07/31 17:32:10;;;;;;;3.72;2.08;;;32.50;25.30;;;;;;21232499;27;80329;-73
2021/07/31 17:42:14;;;;;;;9.30;2.80;;;31.20;26.40;;;;;;21208438;27;80367;-71
2021/07/31 17:52:18;;;;;;;4.30;2.90;;;29.80;27.80;;;;;;21209944;27;80108;-70
2021/07/31 18:02:20;;;;;;;7.53;3.83;;;30.20;27.20;;;;;;21214065;27;81835;-71
2021/07/31 18:12:21;;;;;;;11.45;3.05;;;32.20;24.50;;;;;;21211269;27;80861;-66
2021/07/31 18:22:23;;;;;;;7.20;4.05;;;29.50;30.10;;;;;;21210202;27;80728;-66
2021/07/31 18:32:25;;;;;;;6.65;4.03;;;28.50;29.90;;;;;;21209668;27;80728;-65
2021/07/31 18:42:27;;;;;;;8.30;4.65;;;29.30;29.10;;;;;;21209111;27;81915;-65
2021/07/31 18:52:29;;;;;;;9.93;5.43;;;30.50;27.30;;;;;;21207442;27;80523;-65
2021/07/31 19:02:31;;;;;;;18.83;5.25;;;29.00;29.40;;;;;;21208255;27;80950;-65
2021/07/31 19:12:33;;;;;;;7.88;4.35;;;27.70;31.10;;;;;;21207268;27;80870;-66
2021/07/31 19:22:35;;;;;;;7.75;3.97;;;27.00;32.30;;;;;;21224622;27;80028;-67
2021/07/31 19:32:37;;;;;;;4.90;3.20;;;26.60;31.40;;;;;;21223631;27;81048;-66
2021/07/31 19:42:39;;;;;;;5.65;3.38;;;26.30;32.80;;;;;;21229652;27;80681;-66
2021/07/31 19:52:41;;;;;;;5.22;3.28;;;26.00;32.40;;;;;;21237212;27;80851;-65
2021/07/31 20:02:44;;;;;;;5.68;3.53;;;25.80;33.00;;;;;;21237713;27;80018;-73
2021/07/31 20:12:45;;;;;;;6.35;2.80;;;25.60;33.00;;;;;;21212972;27;80357;-72
2021/07/31 20:22:47;;;;;;;5.75;1.92;;;25.20;34.00;;;;;;21213647;27;81593;-72
2021/07/31 20:32:48;;;;;;;4.88;1.60;;;24.90;35.70;;;;;;21235564;27;80522;-71
2021/07/31 20:42:50;;;;;;;3.08;1.30;;;24.40;37.30;;;;;;21235294;27;81074;-75
2021/07/31 20:52:51;;;;;;;2.92;1.27;;;24.10;37.90;;;;;;21216519;27;80747;-75
2021/07/31 21:02:53;;;;;;;2.55;1.35;;;23.80;38.00;;;;;;21217201;27;80431;-75
2021/07/31 21:12:54;;;;;;;2.22;1.27;;;23.70;38.90;;;;;;21216418;27;80744;-72
2021/07/31 21:22:56;;;;;;;1.73;0.85;;;23.50;40.60;;;;;;21218946;27;80937;-75
2021/07/31 21:32:58;;;;;;;2.05;0.95;;;23.40;42.10;;;;;;21235750;27;80038;-74
2021/07/31 21:43:00;;;;;;;;;;;23.10;43.50;;;;;;21215570;27;80791;-74
2021/07/31 21:53:01;;;;;;;2.03;1.02;;;22.90;43.80;;;;;;21237740;27;81777;-73
2021/07/31 22:03:08;;;;;;;3.25;1.40;;;22.70;44.00;;;;;;21212579;27;80005;-73
2021/07/31 22:13:09;;;;;;;2.25;0.90;;;22.70;44.70;;;;;;21212854;27;81750;-71
2021/07/31 22:23:14;;;;;;;2.15;0.52;;;22.60;46.00;;;;;;21213710;27;80708;-70
2021/07/31 22:33:16;;;;;;;2.28;0.73;;;22.40;47.10;;;;;;21212939;27;80740;-75
2021/07/31 22:43:18;;;;;;;2.38;0.80;;;22.30;47.50;;;;;;21210624;27;81066;-71
2021/07/31 22:53:20;;;;;;;1.50;0.60;;;22.20;47.60;;;;;;21211590;27;81112;-71
2021/07/31 23:03:22;;;;;;;;;;;22.00;48.00;;;;;;21209379;27;80995;-73
2021/07/31 23:13:23;;;;;;;1.80;0.88;;;21.90;48.00;;;;;;21232570;27;80821;-73
2021/07/31 23:23:25;;;;;;;;;;;21.90;49.20;;;;;;21223197;27;80081;-72
2021/07/31 23:33:27;;;;;;;1.63;0.80;;;21.50;49.80;;;;;;21261726;27;80686;-72
2021/07/31 23:43:28;;;;;;;;;;;21.30;50.80;;;;;;21221296;27;80012;-75
2021/07/31 23:53:31;;;;;;;1.47;0.50;;;21.20;51.20;;;;;;21261007;27;79692;-73
